sensor_id;sensor_type;location;lat;lon;timestamp;P1;durP1;ratioP1;P2;durP2;ratioP2
14030;SDS011;7090;49.436;8.490;2023-11-21T00:00:12;3.03;;;2.87;;
14030;SDS011;7090;49.436;8.490;2023-11-21T00:02:39;4.33;;;3.93;;
14030;SDS011;7090;49.436;8.490;2023-11-21T00:05:07;3.87;;;3.33;;
14030;SDS011;7090;49.436;8.490;2023-11-21T00:07:34;3.70;;;2.80;;
14030;SDS011;7090;49.436;8.490;2023-11-21T00:10:01;2.90;;;2.80;;
14030;SDS011;7090;49.436;8.490;2023-11-21T00:12:27;4.77;;;3.67;;
14030;SDS011;7090;49.436;8.490;2023-11-21T00:14:54;6.50;;;3.80;;
14030;SDS011;7090;49.436;8.490;2023-11-21T00:17:20;10.83;;;3.87;;
14030;SDS011;7090;49.436;8.490;2023-11-21T00:19:45;6.13;;;3.50;;
14030;SDS011;7090;49.436;8.490;2023-11-21T00:22:11;3.03;;;2.50;;
14030;SDS011;7090;49.436;8.490;2023-11-21T00:24:37;3.03;;;2.93;;
14030;SDS011;7090;49.436;8.490;2023-11-21T00:27:02;6.80;;;3.50;;
14030;SDS011;7090;49.436;8.490;2023-11-21T00:29:28;3.17;;;2.87;;
14030;SDS011;7090;49.436;8.490;2023-11-21T00:31:54;3.37;;;3.17;;
14030;SDS011;7090;49.436;8.490;2023-11-21T00:34:19;6.93;;;3.50;;
14030;SDS011;7090;49.436;8.490;2023-11-21T00:36:45;2.70;;;2.60;;
14030;SDS011;7090;49.436;8.490;2023-11-21T00:39:10;3.40;;;3.23;;
14030;SDS011;7090;49.436;8.490;2023-11-21T00:41:36;3.30;;;3.10;;
14030;SDS011;7090;49.436;8.490;2023-11-21T00:44:02;3.47;;;3.20;;
14030;SDS011;7090;49.436;8.490;2023-11-21T00:46:28;3.47;;;3.27;;
14030;SDS011;7090;49.436;8.490;2023-11-21T00:48:54;3.90;;;3.33;;
14030;SDS011;7090;49.436;8.490;2023-11-21T00:51:20;2.40;;;2.30;;
14030;SDS011;7090;49.436;8.490;2023-11-21T00:53:47;5.20;;;3.10;;
14030;SDS011;7090;49.436;8.490;2023-11-21T00:56:12;2.73;;;2.63;;
14030;SDS011;7090;49.436;8.490;2023-11-21T00:58:38;2.70;;;2.60;;
14030;SDS011;7090;49.436;8.490;2023-11-21T01:01:07;3.20;;;2.90;;
14030;SDS011;7090;49.436;8.490;2023-11-21T01:03:33;2.30;;;2.30;;
14030;SDS011;7090;49.436;8.490;2023-11-21T01:05:58;3.00;;;2.90;;
14030;SDS011;7090;49.436;8.490;2023-11-21T01:08:24;2.50;;;2.40;;
14030;SDS011;7090;49.436;8.490;2023-11-21T01:10:50;2.60;;;2.50;;
14030;SDS011;7090;49.436;8.490;2023-11-21T01:13:15;5.00;;;3.40;;
14030;SDS011;7090;49.436;8.490;2023-11-21T01:15:41;2.53;;;2.43;;
14030;SDS011;7090;49.436;8.490;2023-11-21T01:18:07;3.00;;;2.80;;
14030;SDS011;7090;49.436;8.490;2023-11-21T01:20:33;2.10;;;2.10;;
14030;SDS011;7090;49.436;8.490;2023-11-21T01:22:59;2.57;;;2.37;;
14030;SDS011;7090;49.436;8.490;2023-11-21T01:25:25;3.33;;;3.13;;
14030;SDS011;7090;49.436;8.490;2023-11-21T01:27:50;2.10;;;2.10;;
14030;SDS011;7090;49.436;8.490;2023-11-21T01:30:16;2.50;;;2.40;;
14030;SDS011;7090;49.436;8.490;2023-11-21T01:32:42;4.27;;;2.60;;
14030;SDS011;7090;49.436;8.490;2023-11-21T01:35:08;2.40;;;2.30;;
14030;SDS011;7090;49.436;8.490;2023-11-21T01:37:35;5.33;;;2.80;;
14030;SDS011;7090;49.436;8.490;2023-11-21T01:40:01;3.10;;;2.90;;
14030;SDS011;7090;49.436;8.490;2023-11-21T01:42:27;3.00;;;2.90;;
14030;SDS011;7090;49.436;8.490;2023-11-21T01:44:54;3.53;;;3.23;;
14030;SDS011;7090;49.436;8.490;2023-11-21T01:47:20;4.60;;;3.60;;
14030;SDS011;7090;49.436;8.490;2023-11-21T01:49:46;2.90;;;2.77;;
14030;SDS011;7090;49.436;8.490;2023-11-21T01:52:12;3.53;;;3.37;;
14030;SDS011;7090;49.436;8.490;2023-11-21T01:54:38;3.27;;;3.17;;
14030;SDS011;7090;49.436;8.490;2023-11-21T01:57:04;2.60;;;2.50;;
14030;SDS011;7090;49.436;8.490;2023-11-21T01:59:34;2.80;;;2.70;;
14030;SDS011;7090;49.436;8.490;2023-11-21T02:02:01;3.60;;;3.30;;
14030;SDS011;7090;49.436;8.490;2023-11-21T02:04:34;3.97;;;3.23;;
14030;SDS011;7090;49.436;8.490;2023-11-21T02:07:01;3.00;;;2.80;;
14030;SDS011;7090;49.436;8.490;2023-11-21T02:09:30;3.03;;;2.83;;
14030;SDS011;7090;49.436;8.490;2023-11-21T02:11:56;4.00;;;3.70;;
14030;SDS011;7090;49.436;8.490;2023-11-21T02:14:23;2.60;;;2.50;;
14030;SDS011;7090;49.436;8.490;2023-11-21T02:16:53;2.70;;;2.60;;
14030;SDS011;7090;49.436;8.490;2023-11-21T02:19:20;3.30;;;3.10;;
14030;SDS011;7090;49.436;8.490;2023-11-21T02:21:54;4.03;;;3.10;;
14030;SDS011;7090;49.436;8.490;2023-11-21T02:24:28;3.17;;;2.80;;
14030;SDS011;7090;49.436;8.490;2023-11-21T02:26:53;3.00;;;2.80;;
14030;SDS011;7090;49.436;8.490;2023-11-21T02:29:20;3.13;;;2.73;;
14030;SDS011;7090;49.436;8.490;2023-11-21T02:31:53;2.80;;;2.70;;
14030;SDS011;7090;49.436;8.490;2023-11-21T02:34:20;3.23;;;2.93;;
14030;SDS011;7090;49.436;8.490;2023-11-21T02:36:46;3.23;;;3.03;;
14030;SDS011;7090;49.436;8.490;2023-11-21T02:39:14;8.83;;;3.77;;
14030;SDS011;7090;49.436;8.490;2023-11-21T02:41:41;2.80;;;2.70;;
14030;SDS011;7090;49.436;8.490;2023-11-21T02:44:07;2.70;;;2.60;;
14030;SDS011;7090;49.436;8.490;2023-11-21T02:46:34;2.90;;;2.80;;
14030;SDS011;7090;49.436;8.490;2023-11-21T02:49:01;3.00;;;2.90;;
14030;SDS011;7090;49.436;8.490;2023-11-21T02:51:35;3.20;;;3.10;;
14030;SDS011;7090;49.436;8.490;2023-11-21T02:54:02;3.00;;;2.90;;
14030;SDS011;7090;49.436;8.490;2023-11-21T02:56:31;3.53;;;3.33;;
14030;SDS011;7090;49.436;8.490;2023-11-21T02:58:58;3.07;;;2.97;;
14030;SDS011;7090;49.436;8.490;2023-11-21T03:01:25;4.10;;;3.80;;
14030;SDS011;7090;49.436;8.490;2023-11-21T03:03:51;2.93;;;2.83;;
14030;SDS011;7090;49.436;8.490;2023-11-21T03:06:17;3.40;;;3.17;;
14030;SDS011;7090;49.436;8.490;2023-11-21T03:08:43;2.80;;;2.70;;
14030;SDS011;7090;49.436;8.490;2023-11-21T03:11:09;2.87;;;2.77;;
14030;SDS011;7090;49.436;8.490;2023-11-21T03:13:34;3.03;;;2.77;;
14030;SDS011;7090;49.436;8.490;2023-11-21T03:16:00;2.50;;;2.40;;
14030;SDS011;7090;49.436;8.490;2023-11-21T03:18:26;3.27;;;3.07;;
14030;SDS011;7090;49.436;8.490;2023-11-21T03:20:52;3.33;;;3.13;;
14030;SDS011;7090;49.436;8.490;2023-11-21T03:23:18;3.10;;;2.93;;
14030;SDS011;7090;49.436;8.490;2023-11-21T03:25:44;3.20;;;3.00;;
14030;SDS011;7090;49.436;8.490;2023-11-21T03:28:10;4.27;;;3.90;;
14030;SDS011;7090;49.436;8.490;2023-11-21T03:30:35;3.00;;;2.80;;
14030;SDS011;7090;49.436;8.490;2023-11-21T03:33:01;3.00;;;2.80;;
14030;SDS011;7090;49.436;8.490;2023-11-21T03:35:26;5.50;;;2.80;;
14030;SDS011;7090;49.436;8.490;2023-11-21T03:37:52;16.43;;;3.77;;
14030;SDS011;7090;49.436;8.490;2023-11-21T03:40:18;2.30;;;2.20;;
14030;SDS011;7090;49.436;8.490;2023-11-21T03:42:46;1.90;;;1.90;;
14030;SDS011;7090;49.436;8.490;2023-11-21T03:45:12;2.00;;;2.00;;
14030;SDS011;7090;49.436;8.490;2023-11-21T03:47:37;1.90;;;1.90;;
14030;SDS011;7090;49.436;8.490;2023-11-21T03:50:04;2.73;;;2.63;;
14030;SDS011;7090;49.436;8.490;2023-11-21T03:52:30;2.80;;;2.60;;
14030;SDS011;7090;49.436;8.490;2023-11-21T03:54:56;2.10;;;2.10;;
14030;SDS011;7090;49.436;8.490;2023-11-21T03:57:21;2.33;;;2.27;;
14030;SDS011;7090;49.436;8.490;2023-11-21T03:59:47;2.50;;;2.40;;
14030;SDS011;7090;49.436;8.490;2023-11-21T04:02:12;2.10;;;2.10;;
14030;SDS011;7090;49.436;8.490;2023-11-21T04:04:38;2.57;;;2.40;;
14030;SDS011;7090;49.436;8.490;2023-11-21T04:07:04;3.37;;;2.93;;
14030;SDS011;7090;49.436;8.490;2023-11-21T04:09:30;2.30;;;2.20;;
14030;SDS011;7090;49.436;8.490;2023-11-21T04:11:56;2.50;;;2.40;;
14030;SDS011;7090;49.436;8.490;2023-11-21T04:14:21;3.00;;;2.80;;
14030;SDS011;7090;49.436;8.490;2023-11-21T04:16:47;2.60;;;2.50;;
14030;SDS011;7090;49.436;8.490;2023-11-21T04:19:13;3.10;;;2.80;;
14030;SDS011;7090;49.436;8.490;2023-11-21T04:21:40;2.80;;;2.60;;
14030;SDS011;7090;49.436;8.490;2023-11-21T04:24:06;2.40;;;2.30;;
14030;SDS011;7090;49.436;8.490;2023-11-21T04:26:32;1.80;;;1.80;;
14030;SDS011;7090;49.436;8.490;2023-11-21T04:28:57;2.60;;;2.50;;
14030;SDS011;7090;49.436;8.490;2023-11-21T04:31:23;2.50;;;2.40;;
14030;SDS011;7090;49.436;8.490;2023-11-21T04:33:49;2.40;;;2.30;;
14030;SDS011;7090;49.436;8.490;2023-11-21T04:36:14;2.20;;;2.10;;
14030;SDS011;7090;49.436;8.490;2023-11-21T04:38:40;2.07;;;2.03;;
14030;SDS011;7090;49.436;8.490;2023-11-21T04:41:06;2.40;;;2.30;;
14030;SDS011;7090;49.436;8.490;2023-11-21T04:43:32;1.80;;;1.80;;
14030;SDS011;7090;49.436;8.490;2023-11-21T04:45:58;2.83;;;2.63;;
14030;SDS011;7090;49.436;8.490;2023-11-21T04:48:23;2.70;;;2.60;;
14030;SDS011;7090;49.436;8.490;2023-11-21T04:50:49;2.53;;;2.43;;
14030;SDS011;7090;49.436;8.490;2023-11-21T04:53:14;1.80;;;1.80;;
14030;SDS011;7090;49.436;8.490;2023-11-21T04:55:40;2.00;;;1.90;;
14030;SDS011;7090;49.436;8.490;2023-11-21T04:58:06;1.80;;;1.80;;
14030;SDS011;7090;49.436;8.490;2023-11-21T05:00:33;2.23;;;2.13;;
14030;SDS011;7090;49.436;8.490;2023-11-21T05:02:59;2.23;;;2.00;;
14030;SDS011;7090;49.436;8.490;2023-11-21T05:05:26;1.70;;;1.70;;
14030;SDS011;7090;49.436;8.490;2023-11-21T05:07:52;2.73;;;2.53;;
14030;SDS011;7090;49.436;8.490;2023-11-21T05:10:18;1.60;;;1.60;;
14030;SDS011;7090;49.436;8.490;2023-11-21T05:12:44;1.70;;;1.70;;
14030;SDS011;7090;49.436;8.490;2023-11-21T05:15:12;2.00;;;2.00;;
14030;SDS011;7090;49.436;8.490;2023-11-21T05:17:40;2.10;;;2.10;;
14030;SDS011;7090;49.436;8.490;2023-11-21T05:20:14;2.70;;;2.50;;
14030;SDS011;7090;49.436;8.490;2023-11-21T05:22:45;1.90;;;1.90;;
14030;SDS011;7090;49.436;8.490;2023-11-21T05:25:11;2.30;;;2.20;;
14030;SDS011;7090;49.436;8.490;2023-11-21T05:27:37;2.57;;;2.47;;
14030;SDS011;7090;49.436;8.490;2023-11-21T05:30:03;2.10;;;2.10;;
14030;SDS011;7090;49.436;8.490;2023-11-21T05:32:30;2.30;;;2.30;;
14030;SDS011;7090;49.436;8.490;2023-11-21T05:34:56;2.30;;;2.30;;
14030;SDS011;7090;49.436;8.490;2023-11-21T05:37:22;2.80;;;2.70;;
14030;SDS011;7090;49.436;8.490;2023-11-21T05:39:48;2.20;;;2.20;;
14030;SDS011;7090;49.436;8.490;2023-11-21T05:42:14;2.60;;;2.50;;
14030;SDS011;7090;49.436;8.490;2023-11-21T05:44:43;2.40;;;2.30;;
14030;SDS011;7090;49.436;8.490;2023-11-21T05:47:08;2.70;;;2.60;;
14030;SDS011;7090;49.436;8.490;2023-11-21T05:49:35;2.80;;;2.70;;
14030;SDS011;7090;49.436;8.490;2023-11-21T05:52:01;2.70;;;2.60;;
14030;SDS011;7090;49.436;8.490;2023-11-21T05:54:26;2.70;;;2.60;;
14030;SDS011;7090;49.436;8.490;2023-11-21T05:56:52;2.87;;;2.77;;
14030;SDS011;7090;49.436;8.490;2023-11-21T05:59:17;2.80;;;2.70;;
14030;SDS011;7090;49.436;8.490;2023-11-21T06:01:45;3.10;;;3.00;;
14030;SDS011;7090;49.436;8.490;2023-11-21T06:04:11;3.20;;;3.10;;
14030;SDS011;7090;49.436;8.490;2023-11-21T06:06:37;3.40;;;3.30;;
14030;SDS011;7090;49.436;8.490;2023-11-21T06:09:04;3.90;;;3.80;;
14030;SDS011;7090;49.436;8.490;2023-11-21T06:11:30;3.80;;;3.70;;
14030;SDS011;7090;49.436;8.490;2023-11-21T06:13:56;4.20;;;4.10;;
14030;SDS011;7090;49.436;8.490;2023-11-21T06:16:23;4.90;;;4.70;;
14030;SDS011;7090;49.436;8.490;2023-11-21T06:18:49;4.30;;;4.20;;
14030;SDS011;7090;49.436;8.490;2023-11-21T06:21:14;4.20;;;4.10;;
14030;SDS011;7090;49.436;8.490;2023-11-21T06:23:41;4.10;;;4.00;;
14030;SDS011;7090;49.436;8.490;2023-11-21T06:26:07;4.23;;;4.13;;
14030;SDS011;7090;49.436;8.490;2023-11-21T06:28:34;5.00;;;4.80;;
14030;SDS011;7090;49.436;8.490;2023-11-21T06:31:00;4.18;;;4.07;;
14030;SDS011;7090;49.436;8.490;2023-11-21T06:33:30;4.40;;;4.30;;
14030;SDS011;7090;49.436;8.490;2023-11-21T06:35:56;5.07;;;4.88;;
14030;SDS011;7090;49.436;8.490;2023-11-21T06:38:22;5.13;;;4.93;;
14030;SDS011;7090;49.436;8.490;2023-11-21T06:40:47;4.90;;;4.70;;
14030;SDS011;7090;49.436;8.490;2023-11-21T06:43:13;4.50;;;4.30;;
14030;SDS011;7090;49.436;8.490;2023-11-21T06:45:39;4.47;;;4.30;;
14030;SDS011;7090;49.436;8.490;2023-11-21T06:48:04;4.33;;;4.23;;
14030;SDS011;7090;49.436;8.490;2023-11-21T06:50:30;4.73;;;4.53;;
14030;SDS011;7090;49.436;8.490;2023-11-21T06:52:56;4.23;;;4.07;;
14030;SDS011;7090;49.436;8.490;2023-11-21T06:55:21;4.50;;;4.27;;
14030;SDS011;7090;49.436;8.490;2023-11-21T06:57:47;5.90;;;5.50;;
14030;SDS011;7090;49.436;8.490;2023-11-21T07:00:13;5.80;;;5.50;;
14030;SDS011;7090;49.436;8.490;2023-11-21T07:02:42;7.90;;;7.30;;
14030;SDS011;7090;49.436;8.490;2023-11-21T07:05:08;6.27;;;5.93;;
14030;SDS011;7090;49.436;8.490;2023-11-21T07:07:34;4.73;;;4.53;;
14030;SDS011;7090;49.436;8.490;2023-11-21T07:10:03;4.80;;;4.50;;
14030;SDS011;7090;49.436;8.490;2023-11-21T07:12:31;4.63;;;4.33;;
14030;SDS011;7090;49.436;8.490;2023-11-21T07:14:57;4.53;;;4.33;;
14030;SDS011;7090;49.436;8.490;2023-11-21T07:17:23;5.00;;;4.80;;
14030;SDS011;7090;49.436;8.490;2023-11-21T07:19:49;3.90;;;3.80;;
14030;SDS011;7090;49.436;8.490;2023-11-21T07:22:15;4.47;;;4.27;;
14030;SDS011;7090;49.436;8.490;2023-11-21T07:24:47;4.47;;;4.27;;
14030;SDS011;7090;49.436;8.490;2023-11-21T07:27:14;3.70;;;3.60;;
14030;SDS011;7090;49.436;8.490;2023-11-21T07:29:40;6.53;;;5.97;;
14030;SDS011;7090;49.436;8.490;2023-11-21T07:32:06;4.20;;;4.00;;
14030;SDS011;7090;49.436;8.490;2023-11-21T07:34:34;5.43;;;5.07;;
14030;SDS011;7090;49.436;8.490;2023-11-21T07:36:59;3.80;;;3.70;;
14030;SDS011;7090;49.436;8.490;2023-11-21T07:39:25;4.77;;;4.57;;
14030;SDS011;7090;49.436;8.490;2023-11-21T07:41:51;5.50;;;5.10;;
14030;SDS011;7090;49.436;8.490;2023-11-21T07:44:16;3.50;;;3.40;;
14030;SDS011;7090;49.436;8.490;2023-11-21T07:46:42;5.90;;;5.43;;
14030;SDS011;7090;49.436;8.490;2023-11-21T07:49:08;4.03;;;3.83;;
14030;SDS011;7090;49.436;8.490;2023-11-21T07:51:34;4.20;;;4.00;;
14030;SDS011;7090;49.436;8.490;2023-11-21T07:53:59;4.25;;;4.05;;
14030;SDS011;7090;49.436;8.490;2023-11-21T07:56:25;5.80;;;4.73;;
14030;SDS011;7090;49.436;8.490;2023-11-21T07:58:51;5.33;;;4.83;;
14030;SDS011;7090;49.436;8.490;2023-11-21T08:01:17;4.27;;;4.13;;
14030;SDS011;7090;49.436;8.490;2023-11-21T08:03:42;4.57;;;4.27;;
14030;SDS011;7090;49.436;8.490;2023-11-21T08:06:09;4.17;;;3.97;;
14030;SDS011;7090;49.436;8.490;2023-11-21T08:08:35;3.43;;;3.33;;
14030;SDS011;7090;49.436;8.490;2023-11-21T08:11:01;4.33;;;4.13;;
14030;SDS011;7090;49.436;8.490;2023-11-21T08:13:27;3.40;;;3.30;;
14030;SDS011;7090;49.436;8.490;2023-11-21T08:15:55;5.87;;;5.40;;
14030;SDS011;7090;49.436;8.490;2023-11-21T08:18:27;3.80;;;3.60;;
14030;SDS011;7090;49.436;8.490;2023-11-21T08:20:54;3.93;;;3.73;;
14030;SDS011;7090;49.436;8.490;2023-11-21T08:23:20;3.70;;;3.60;;
14030;SDS011;7090;49.436;8.490;2023-11-21T08:25:50;3.50;;;3.40;;
14030;SDS011;7090;49.436;8.490;2023-11-21T08:28:16;4.90;;;4.60;;
14030;SDS011;7090;49.436;8.490;2023-11-21T08:30:42;4.10;;;3.90;;
14030;SDS011;7090;49.436;8.490;2023-11-21T08:33:07;3.80;;;3.70;;
14030;SDS011;7090;49.436;8.490;2023-11-21T08:35:33;4.10;;;3.97;;
14030;SDS011;7090;49.436;8.490;2023-11-21T08:37:59;3.75;;;3.65;;
14030;SDS011;7090;49.436;8.490;2023-11-21T08:40:25;4.17;;;4.07;;
14030;SDS011;7090;49.436;8.490;2023-11-21T08:42:51;5.03;;;4.80;;
14030;SDS011;7090;49.436;8.490;2023-11-21T08:45:17;4.60;;;4.50;;
14030;SDS011;7090;49.436;8.490;2023-11-21T08:47:44;4.80;;;4.60;;
14030;SDS011;7090;49.436;8.490;2023-11-21T08:50:10;4.63;;;4.43;;
14030;SDS011;7090;49.436;8.490;2023-11-21T08:52:37;4.67;;;4.47;;
14030;SDS011;7090;49.436;8.490;2023-11-21T08:55:04;5.15;;;4.95;;
14030;SDS011;7090;49.436;8.490;2023-11-21T08:57:36;6.27;;;5.97;;
14030;SDS011;7090;49.436;8.490;2023-11-21T09:00:05;5.57;;;5.37;;
14030;SDS011;7090;49.436;8.490;2023-11-21T09:02:35;5.90;;;5.70;;
14030;SDS011;7090;49.436;8.490;2023-11-21T09:05:02;6.30;;;6.00;;
14030;SDS011;7090;49.436;8.490;2023-11-21T09:07:30;6.00;;;5.80;;
14030;SDS011;7090;49.436;8.490;2023-11-21T09:09:55;7.40;;;6.93;;
14030;SDS011;7090;49.436;8.490;2023-11-21T09:12:21;7.32;;;6.93;;
14030;SDS011;7090;49.436;8.490;2023-11-21T09:14:47;5.60;;;5.40;;
14030;SDS011;7090;49.436;8.490;2023-11-21T09:17:13;5.37;;;5.17;;
14030;SDS011;7090;49.436;8.490;2023-11-21T09:19:39;5.30;;;5.10;;
14030;SDS011;7090;49.436;8.490;2023-11-21T09:22:06;5.07;;;4.87;;
14030;SDS011;7090;49.436;8.490;2023-11-21T09:24:32;5.33;;;5.13;;
14030;SDS011;7090;49.436;8.490;2023-11-21T09:26:59;4.80;;;4.70;;
14030;SDS011;7090;49.436;8.490;2023-11-21T09:29:28;5.00;;;4.80;;
14030;SDS011;7090;49.436;8.490;2023-11-21T09:31:54;5.23;;;5.03;;
14030;SDS011;7090;49.436;8.490;2023-11-21T09:34:20;5.63;;;5.43;;
14030;SDS011;7090;49.436;8.490;2023-11-21T09:36:46;4.33;;;4.23;;
14030;SDS011;7090;49.436;8.490;2023-11-21T09:39:12;5.27;;;5.07;;
14030;SDS011;7090;49.436;8.490;2023-11-21T09:41:52;4.70;;;4.50;;
14030;SDS011;7090;49.436;8.490;2023-11-21T09:45:08;4.20;;;4.10;;
14030;SDS011;7090;49.436;8.490;2023-11-21T09:47:21;4.40;;;4.30;;
14030;SDS011;7090;49.436;8.490;2023-11-21T09:49:48;4.30;;;4.20;;
14030;SDS011;7090;49.436;8.490;2023-11-21T09:52:22;5.17;;;4.97;;
14030;SDS011;7090;49.436;8.490;2023-11-21T09:54:50;5.87;;;5.63;;
14030;SDS011;7090;49.436;8.490;2023-11-21T09:57:19;5.67;;;5.27;;
14030;SDS011;7090;49.436;8.490;2023-11-21T09:59:47;5.47;;;5.20;;
14030;SDS011;7090;49.436;8.490;2023-11-21T10:02:16;5.90;;;5.50;;
14030;SDS011;7090;49.436;8.490;2023-11-21T10:04:44;6.50;;;6.13;;
14030;SDS011;7090;49.436;8.490;2023-11-21T10:07:10;6.23;;;5.90;;
14030;SDS011;7090;49.436;8.490;2023-11-21T10:09:40;6.13;;;5.83;;
14030;SDS011;7090;49.436;8.490;2023-11-21T10:12:06;6.30;;;6.00;;
14030;SDS011;7090;49.436;8.490;2023-11-21T10:14:34;5.73;;;5.53;;
14030;SDS011;7090;49.436;8.490;2023-11-21T10:17:04;5.53;;;5.33;;
14030;SDS011;7090;49.436;8.490;2023-11-21T10:19:30;8.30;;;7.60;;
14030;SDS011;7090;49.436;8.490;2023-11-21T10:21:57;8.03;;;7.53;;
14030;SDS011;7090;49.436;8.490;2023-11-21T10:24:25;6.33;;;5.93;;
14030;SDS011;7090;49.436;8.490;2023-11-21T10:26:51;5.93;;;5.63;;
14030;SDS011;7090;49.436;8.490;2023-11-21T10:29:18;5.93;;;5.53;;
14030;SDS011;7090;49.436;8.490;2023-11-21T10:31:48;7.17;;;6.70;;
14030;SDS011;7090;49.436;8.490;2023-11-21T10:34:15;6.50;;;6.10;;
14030;SDS011;7090;49.436;8.490;2023-11-21T10:36:43;6.60;;;6.30;;
14030;SDS011;7090;49.436;8.490;2023-11-21T10:39:09;8.10;;;7.50;;
14030;SDS011;7090;49.436;8.490;2023-11-21T10:41:37;7.20;;;6.70;;
14030;SDS011;7090;49.436;8.490;2023-11-21T10:44:03;6.90;;;6.50;;
14030;SDS011;7090;49.436;8.490;2023-11-21T10:46:32;6.57;;;6.13;;
14030;SDS011;7090;49.436;8.490;2023-11-21T10:48:58;7.17;;;6.77;;
14030;SDS011;7090;49.436;8.490;2023-11-21T10:51:25;6.87;;;6.57;;
14030;SDS011;7090;49.436;8.490;2023-11-21T10:53:53;7.70;;;7.07;;
14030;SDS011;7090;49.436;8.490;2023-11-21T10:56:19;7.50;;;7.20;;
14030;SDS011;7090;49.436;8.490;2023-11-21T10:58:49;7.57;;;6.83;;
14030;SDS011;7090;49.436;8.490;2023-11-21T11:01:17;8.03;;;7.53;;
14030;SDS011;7090;49.436;8.490;2023-11-21T11:03:46;8.40;;;7.90;;
14030;SDS011;7090;49.436;8.490;2023-11-21T11:06:12;8.83;;;8.13;;
14030;SDS011;7090;49.436;8.490;2023-11-21T11:08:40;9.60;;;8.87;;
14030;SDS011;7090;49.436;8.490;2023-11-21T11:11:06;7.93;;;7.53;;
14030;SDS011;7090;49.436;8.490;2023-11-21T11:13:32;8.38;;;7.88;;
14030;SDS011;7090;49.436;8.490;2023-11-21T11:15:58;7.67;;;7.17;;
14030;SDS011;7090;49.436;8.490;2023-11-21T11:18:28;8.63;;;8.10;;
14030;SDS011;7090;49.436;8.490;2023-11-21T11:20:54;6.93;;;6.53;;
14030;SDS011;7090;49.436;8.490;2023-11-21T11:29:08;5.00;;;4.80;;
14030;SDS011;7090;49.436;8.490;2023-11-21T11:34:32;6.37;;;5.90;;
14030;SDS011;7090;49.436;8.490;2023-11-21T11:39:30;6.67;;;6.30;;
14030;SDS011;7090;49.436;8.490;2023-11-21T11:42:11;5.43;;;5.23;;
14030;SDS011;7090;49.436;8.490;2023-11-21T11:47:27;6.50;;;6.20;;
14030;SDS011;7090;49.436;8.490;2023-11-21T11:50:04;7.05;;;6.75;;
14030;SDS011;7090;49.436;8.490;2023-11-21T11:53:11;7.00;;;6.70;;
14030;SDS011;7090;49.436;8.490;2023-11-21T11:55:38;6.77;;;6.47;;
14030;SDS011;7090;49.436;8.490;2023-11-21T11:58:05;6.93;;;6.63;;
14030;SDS011;7090;49.436;8.490;2023-11-21T12:02:58;7.37;;;7.07;;
14030;SDS011;7090;49.436;8.490;2023-11-21T12:05:28;8.50;;;7.80;;
14030;SDS011;7090;49.436;8.490;2023-11-21T12:07:58;8.23;;;7.83;;
14030;SDS011;7090;49.436;8.490;2023-11-21T12:10:26;7.67;;;7.37;;
14030;SDS011;7090;49.436;8.490;2023-11-21T12:12:56;6.90;;;6.70;;
14030;SDS011;7090;49.436;8.490;2023-11-21T12:15:23;7.60;;;7.30;;
14030;SDS011;7090;49.436;8.490;2023-11-21T12:17:55;8.48;;;8.07;;
14030;SDS011;7090;49.436;8.490;2023-11-21T12:20:22;9.13;;;8.63;;
14030;SDS011;7090;49.436;8.490;2023-11-21T12:22:49;7.97;;;7.67;;
14030;SDS011;7090;49.436;8.490;2023-11-21T12:25:16;8.87;;;8.47;;
14030;SDS011;7090;49.436;8.490;2023-11-21T12:27:46;10.17;;;9.30;;
14030;SDS011;7090;49.436;8.490;2023-11-21T12:30:23;10.27;;;9.50;;
14030;SDS011;7090;49.436;8.490;2023-11-21T12:33:01;9.20;;;8.70;;
14030;SDS011;7090;49.436;8.490;2023-11-21T12:35:28;8.77;;;8.38;;
14030;SDS011;7090;49.436;8.490;2023-11-21T12:37:56;8.80;;;8.40;;
14030;SDS011;7090;49.436;8.490;2023-11-21T12:40:24;11.03;;;10.30;;
14030;SDS011;7090;49.436;8.490;2023-11-21T12:42:57;10.27;;;9.47;;
14030;SDS011;7090;49.436;8.490;2023-11-21T12:45:24;17.90;;;10.87;;
14030;SDS011;7090;49.436;8.490;2023-11-21T12:47:55;10.17;;;9.67;;
14030;SDS011;7090;49.436;8.490;2023-11-21T12:50:33;10.03;;;9.63;;
14030;SDS011;7090;49.436;8.490;2023-11-21T12:55:31;10.47;;;9.97;;
14030;SDS011;7090;49.436;8.490;2023-11-21T12:57:59;9.88;;;9.48;;
14030;SDS011;7090;49.436;8.490;2023-11-21T13:00:34;12.43;;;11.50;;
14030;SDS011;7090;49.436;8.490;2023-11-21T13:03:02;9.02;;;8.63;;
14030;SDS011;7090;49.436;8.490;2023-11-21T13:05:36;8.70;;;8.30;;
14030;SDS011;7090;49.436;8.490;2023-11-21T13:08:13;8.93;;;8.43;;
14030;SDS011;7090;49.436;8.490;2023-11-21T13:10:43;8.90;;;8.50;;
14030;SDS011;7090;49.436;8.490;2023-11-21T13:13:12;8.15;;;7.85;;
14030;SDS011;7090;49.436;8.490;2023-11-21T13:15:47;7.60;;;7.30;;
14030;SDS011;7090;49.436;8.490;2023-11-21T13:18:14;7.70;;;7.40;;
14030;SDS011;7090;49.436;8.490;2023-11-21T13:20:40;8.32;;;8.00;;
14030;SDS011;7090;49.436;8.490;2023-11-21T13:23:08;8.63;;;7.72;;
14030;SDS011;7090;49.436;8.490;2023-11-21T13:25:36;8.27;;;7.88;;
14030;SDS011;7090;49.436;8.490;2023-11-21T13:28:04;7.90;;;7.60;;
14030;SDS011;7090;49.436;8.490;2023-11-21T13:30:30;8.57;;;8.07;;
14030;SDS011;7090;49.436;8.490;2023-11-21T13:32:59;7.85;;;7.55;;
14030;SDS011;7090;49.436;8.490;2023-11-21T13:35:36;7.78;;;7.47;;
14030;SDS011;7090;49.436;8.490;2023-11-21T13:38:07;7.75;;;7.45;;
14030;SDS011;7090;49.436;8.490;2023-11-21T13:40:34;8.18;;;7.88;;
14030;SDS011;7090;49.436;8.490;2023-11-21T13:43:07;7.60;;;7.30;;
14030;SDS011;7090;49.436;8.490;2023-11-21T13:45:35;8.07;;;7.77;;
14030;SDS011;7090;49.436;8.490;2023-11-21T13:48:01;7.23;;;7.03;;
14030;SDS011;7090;49.436;8.490;2023-11-21T13:50:30;7.90;;;7.50;;
14030;SDS011;7090;49.436;8.490;2023-11-21T13:52:59;7.70;;;7.40;;
14030;SDS011;7090;49.436;8.490;2023-11-21T13:55:35;7.53;;;7.22;;
14030;SDS011;7090;49.436;8.490;2023-11-21T13:58:02;7.80;;;7.50;;
14030;SDS011;7090;49.436;8.490;2023-11-21T14:00:29;7.90;;;7.57;;
14030;SDS011;7090;49.436;8.490;2023-11-21T14:03:09;7.50;;;7.20;;
14030;SDS011;7090;49.436;8.490;2023-11-21T14:05:42;7.50;;;7.20;;
14030;SDS011;7090;49.436;8.490;2023-11-21T14:08:11;7.57;;;7.27;;
14030;SDS011;7090;49.436;8.490;2023-11-21T14:10:39;7.20;;;6.80;;
14030;SDS011;7090;49.436;8.490;2023-11-21T14:13:15;7.00;;;6.80;;
14030;SDS011;7090;49.436;8.490;2023-11-21T14:15:41;7.27;;;6.93;;
14030;SDS011;7090;49.436;8.490;2023-11-21T14:18:10;7.90;;;7.50;;
14030;SDS011;7090;49.436;8.490;2023-11-21T14:20:37;7.60;;;7.20;;
14030;SDS011;7090;49.436;8.490;2023-11-21T14:23:03;7.20;;;6.90;;
14030;SDS011;7090;49.436;8.490;2023-11-21T14:25:32;7.77;;;7.37;;
14030;SDS011;7090;49.436;8.490;2023-11-21T14:28:02;6.50;;;6.30;;
14030;SDS011;7090;49.436;8.490;2023-11-21T14:30:28;6.70;;;6.50;;
14030;SDS011;7090;49.436;8.490;2023-11-21T14:32:57;7.87;;;7.57;;
14030;SDS011;7090;49.436;8.490;2023-11-21T14:35:26;7.60;;;7.30;;
14030;SDS011;7090;49.436;8.490;2023-11-21T14:37:52;7.70;;;7.40;;
14030;SDS011;7090;49.436;8.490;2023-11-21T14:40:17;7.70;;;7.40;;
14030;SDS011;7090;49.436;8.490;2023-11-21T14:42:47;6.90;;;6.70;;
14030;SDS011;7090;49.436;8.490;2023-11-21T14:45:13;7.93;;;7.53;;
14030;SDS011;7090;49.436;8.490;2023-11-21T14:47:44;7.80;;;7.50;;
14030;SDS011;7090;49.436;8.490;2023-11-21T14:50:16;9.17;;;8.67;;
14030;SDS011;7090;49.436;8.490;2023-11-21T14:53:00;8.43;;;7.90;;
14030;SDS011;7090;49.436;8.490;2023-11-21T14:55:30;7.63;;;7.33;;
14030;SDS011;7090;49.436;8.490;2023-11-21T14:58:08;7.63;;;7.33;;
14030;SDS011;7090;49.436;8.490;2023-11-21T15:00:37;7.67;;;7.37;;
14030;SDS011;7090;49.436;8.490;2023-11-21T15:03:10;8.40;;;8.03;;
14030;SDS011;7090;49.436;8.490;2023-11-21T15:05:51;7.50;;;7.20;;
14030;SDS011;7090;49.436;8.490;2023-11-21T15:08:18;7.80;;;7.47;;
14030;SDS011;7090;49.436;8.490;2023-11-21T15:10:52;7.63;;;7.33;;
14030;SDS011;7090;49.436;8.490;2023-11-21T15:13:19;7.70;;;7.40;;
14030;SDS011;7090;49.436;8.490;2023-11-21T15:15:47;7.90;;;7.60;;
14030;SDS011;7090;49.436;8.490;2023-11-21T15:18:12;7.20;;;7.00;;
14030;SDS011;7090;49.436;8.490;2023-11-21T15:20:41;8.90;;;8.20;;